sensor_id;sensor_type;location;lat;lon;timestamp;temperature;humidity
9824;DHT22;4951;50.778;7.196;2023-04-03T00:00:13;3.90;1.00
9824;DHT22;4951;50.778;7.196;2023-04-03T00:02:51;3.90;1.00
9824;DHT22;4951;50.778;7.196;2023-04-03T00:05:18;3.90;1.00
9824;DHT22;4951;50.778;7.196;2023-04-03T00:07:55;3.90;1.00
9824;DHT22;4951;50.778;7.196;2023-04-03T00:10:26;3.90;1.00
9824;DHT22;4951;50.778;7.196;2023-04-03T00:12:53;3.90;1.00
9824;DHT22;4951;50.778;7.196;2023-04-03T00:15:36;3.90;1.00
9824;DHT22;4951;50.778;7.196;2023-04-03T00:18:11;3.90;1.00
9824;DHT22;4951;50.778;7.196;2023-04-03T00:20:46;3.90;1.00
9824;DHT22;4951;50.778;7.196;2023-04-03T00:23:18;4.00;1.00
9824;DHT22;4951;50.778;7.196;2023-04-03T00:25:50;4.00;1.00
9824;DHT22;4951;50.778;7.196;2023-04-03T00:28:46;4.00;1.00
9824;DHT22;4951;50.778;7.196;2023-04-03T00:31:24;4.00;1.00
9824;DHT22;4951;50.778;7.196;2023-04-03T00:34:07;4.00;1.00
9824;DHT22;4951;50.778;7.196;2023-04-03T00:36:43;4.00;1.00
9824;DHT22;4951;50.778;7.196;2023-04-03T00:39:17;4.00;1.00
9824;DHT22;4951;50.778;7.196;2023-04-03T00:41:48;4.00;1.00
9824;DHT22;4951;50.778;7.196;2023-04-03T00:47:30;4.00;1.00
9824;DHT22;4951;50.778;7.196;2023-04-03T00:50:12;3.90;1.00
9824;DHT22;4951;50.778;7.196;2023-04-03T00:53:05;3.90;1.00
9824;DHT22;4951;50.778;7.196;2023-04-03T00:56:10;3.90;1.00
9824;DHT22;4951;50.778;7.196;2023-04-03T00:59:06;3.90;1.00
9824;DHT22;4951;50.778;7.196;2023-04-03T01:01:34;3.90;1.00
9824;DHT22;4951;50.778;7.196;2023-04-03T01:04:03;3.80;1.00
9824;DHT22;4951;50.778;7.196;2023-04-03T01:06:40;3.80;51.30
9824;DHT22;4951;50.778;7.196;2023-04-03T01:09:28;3.80;44.20
9824;DHT22;4951;50.778;7.196;2023-04-03T01:12:15;3.80;2.60
9824;DHT22;4951;50.778;7.196;2023-04-03T01:14:53;3.80;1.00
9824;DHT22;4951;50.778;7.196;2023-04-03T01:17:35;3.80;1.00
9824;DHT22;4951;50.778;7.196;2023-04-03T01:26:36;3.70;1.00
9824;DHT22;4951;50.778;7.196;2023-04-03T01:29:36;3.70;1.00
9824;DHT22;4951;50.778;7.196;2023-04-03T01:32:12;3.60;1.00
9824;DHT22;4951;50.778;7.196;2023-04-03T01:34:46;3.60;1.00
9824;DHT22;4951;50.778;7.196;2023-04-03T01:37:15;3.50;1.00
9824;DHT22;4951;50.778;7.196;2023-04-03T01:39:46;3.50;1.00
9824;DHT22;4951;50.778;7.196;2023-04-03T01:42:16;3.40;1.00
9824;DHT22;4951;50.778;7.196;2023-04-03T01:44:59;3.40;74.20
9824;DHT22;4951;50.778;7.196;2023-04-03T01:47:39;3.40;96.50
9824;DHT22;4951;50.778;7.196;2023-04-03T01:50:12;3.40;59.50
9824;DHT22;4951;50.778;7.196;2023-04-03T01:52:39;3.40;52.60
9824;DHT22;4951;50.778;7.196;2023-04-03T01:55:15;3.40;58.10
9824;DHT22;4951;50.778;7.196;2023-04-03T01:57:45;3.40;99.90
9824;DHT22;4951;50.778;7.196;2023-04-03T02:00:14;3.40;55.00
9824;DHT22;4951;50.778;7.196;2023-04-03T02:02:49;3.30;1.00
9824;DHT22;4951;50.778;7.196;2023-04-03T02:05:18;3.30;1.00
9824;DHT22;4951;50.778;7.196;2023-04-03T02:07:53;3.30;1.00
9824;DHT22;4951;50.778;7.196;2023-04-03T02:10:29;3.20;1.00
9824;DHT22;4951;50.778;7.196;2023-04-03T02:13:01;3.10;1.00
9824;DHT22;4951;50.778;7.196;2023-04-03T02:15:40;3.10;1.00
9824;DHT22;4951;50.778;7.196;2023-04-03T02:18:09;3.00;1.00
9824;DHT22;4951;50.778;7.196;2023-04-03T02:20:55;3.00;16.90
9824;DHT22;4951;50.778;7.196;2023-04-03T02:23:25;3.00;99.90
9824;DHT22;4951;50.778;7.196;2023-04-03T02:26:21;3.00;99.90
9824;DHT22;4951;50.778;7.196;2023-04-03T02:28:54;3.00;99.90
9824;DHT22;4951;50.778;7.196;2023-04-03T02:31:22;3.00;99.90
9824;DHT22;4951;50.778;7.196;2023-04-03T02:33:54;3.00;99.90
9824;DHT22;4951;50.778;7.196;2023-04-03T02:36:25;3.00;99.90
9824;DHT22;4951;50.778;7.196;2023-04-03T02:39:07;3.00;99.90
9824;DHT22;4951;50.778;7.196;2023-04-03T02:41:35;3.00;99.90
9824;DHT22;4951;50.778;7.196;2023-04-03T02:44:14;3.00;99.90
9824;DHT22;4951;50.778;7.196;2023-04-03T02:46:45;3.00;99.90
9824;DHT22;4951;50.778;7.196;2023-04-03T02:49:20;3.00;95.40
9824;DHT22;4951;50.778;7.196;2023-04-03T02:51:48;3.00;29.10
9824;DHT22;4951;50.778;7.196;2023-04-03T02:54:15;2.90;10.60
9824;DHT22;4951;50.778;7.196;2023-04-03T02:57:06;2.90;28.00
9824;DHT22;4951;50.778;7.196;2023-04-03T02:59:36;2.80;1.00
9824;DHT22;4951;50.778;7.196;2023-04-03T03:02:15;2.80;1.00
9824;DHT22;4951;50.778;7.196;2023-04-03T03:04:58;2.70;1.00
9824;DHT22;4951;50.778;7.196;2023-04-03T03:07:36;2.70;1.00
9824;DHT22;4951;50.778;7.196;2023-04-03T03:10:07;2.60;1.00
9824;DHT22;4951;50.778;7.196;2023-04-03T03:12:36;2.50;71.50
9824;DHT22;4951;50.778;7.196;2023-04-03T03:15:05;2.50;99.90
9824;DHT22;4951;50.778;7.196;2023-04-03T03:17:32;2.50;99.90
9824;DHT22;4951;50.778;7.196;2023-04-03T03:20:11;2.40;99.90
9824;DHT22;4951;50.778;7.196;2023-04-03T03:23:16;2.40;99.90
9824;DHT22;4951;50.778;7.196;2023-04-03T03:25:55;2.30;99.90
9824;DHT22;4951;50.778;7.196;2023-04-03T03:28:23;2.30;99.90
9824;DHT22;4951;50.778;7.196;2023-04-03T03:30:53;2.20;99.90
9824;DHT22;4951;50.778;7.196;2023-04-03T03:33:28;2.20;99.90
9824;DHT22;4951;50.778;7.196;2023-04-03T03:36:23;2.10;99.90
9824;DHT22;4951;50.778;7.196;2023-04-03T03:38:58;2.00;99.90
9824;DHT22;4951;50.778;7.196;2023-04-03T03:41:31;2.00;99.90
9824;DHT22;4951;50.778;7.196;2023-04-03T03:43:59;1.80;99.90
9824;DHT22;4951;50.778;7.196;2023-04-03T03:46:34;1.70;99.90
9824;DHT22;4951;50.778;7.196;2023-04-03T03:49:09;1.70;99.90
9824;DHT22;4951;50.778;7.196;2023-04-03T03:51:45;1.60;1.00
9824;DHT22;4951;50.778;7.196;2023-04-03T03:54:13;1.50;1.00
9824;DHT22;4951;50.778;7.196;2023-04-03T03:56:41;1.50;1.00
9824;DHT22;4951;50.778;7.196;2023-04-03T03:59:15;1.50;75.30
9824;DHT22;4951;50.778;7.196;2023-04-03T04:01:44;1.50;99.90
9824;DHT22;4951;50.778;7.196;2023-04-03T04:04:12;1.50;99.90
9824;DHT22;4951;50.778;7.196;2023-04-03T04:06:42;1.50;99.90
9824;DHT22;4951;50.778;7.196;2023-04-03T04:09:16;1.50;99.90
9824;DHT22;4951;50.778;7.196;2023-04-03T04:11:44;1.50;99.90
9824;DHT22;4951;50.778;7.196;2023-04-03T04:14:18;1.40;99.90
9824;DHT22;4951;50.778;7.196;2023-04-03T04:16:53;1.40;32.80
9824;DHT22;4951;50.778;7.196;2023-04-03T04:19:29;1.30;99.90
9824;DHT22;4951;50.778;7.196;2023-04-03T04:22:22;1.30;99.90
9824;DHT22;4951;50.778;7.196;2023-04-03T04:25:07;1.20;99.90
9824;DHT22;4951;50.778;7.196;2023-04-03T04:27:38;1.30;1.00
9824;DHT22;4951;50.778;7.196;2023-04-03T04:30:29;1.30;1.00
9824;DHT22;4951;50.778;7.196;2023-04-03T04:32:58;1.20;1.00
9824;DHT22;4951;50.778;7.196;2023-04-03T04:35:38;1.30;1.00
9824;DHT22;4951;50.778;7.196;2023-04-03T04:38:12;1.30;1.00
9824;DHT22;4951;50.778;7.196;2023-04-03T04:40:45;1.30;1.00
9824;DHT22;4951;50.778;7.196;2023-04-03T04:43:16;1.30;1.00
9824;DHT22;4951;50.778;7.196;2023-04-03T04:45:59;1.30;1.00
9824;DHT22;4951;50.778;7.196;2023-04-03T04:48:46;1.30;1.00
9824;DHT22;4951;50.778;7.196;2023-04-03T04:51:20;1.30;1.00
9824;DHT22;4951;50.778;7.196;2023-04-03T04:53:58;1.30;1.00
9824;DHT22;4951;50.778;7.196;2023-04-03T04:56:36;1.20;1.00
9824;DHT22;4951;50.778;7.196;2023-04-03T04:59:04;1.20;1.00
9824;DHT22;4951;50.778;7.196;2023-04-03T05:01:32;1.20;1.00
9824;DHT22;4951;50.778;7.196;2023-04-03T05:07:27;1.20;1.00
9824;DHT22;4951;50.778;7.196;2023-04-03T05:10:21;1.20;1.00
9824;DHT22;4951;50.778;7.196;2023-04-03T05:12:59;1.20;1.00
9824;DHT22;4951;50.778;7.196;2023-04-03T05:15:26;1.20;1.00
9824;DHT22;4951;50.778;7.196;2023-04-03T05:17:58;1.20;1.00
9824;DHT22;4951;50.778;7.196;2023-04-03T05:20:30;1.20;1.00
9824;DHT22;4951;50.778;7.196;2023-04-03T05:22:59;1.20;1.00
9824;DHT22;4951;50.778;7.196;2023-04-03T05:25:30;1.20;1.00
9824;DHT22;4951;50.778;7.196;2023-04-03T05:28:16;1.20;1.00
9824;DHT22;4951;50.778;7.196;2023-04-03T05:30:53;1.20;1.00
9824;DHT22;4951;50.778;7.196;2023-04-03T05:33:24;1.20;1.00
9824;DHT22;4951;50.778;7.196;2023-04-03T05:36:03;1.20;1.00
9824;DHT22;4951;50.778;7.196;2023-04-03T05:38:33;1.30;1.00
9824;DHT22;4951;50.778;7.196;2023-04-03T05:41:03;1.30;1.00
9824;DHT22;4951;50.778;7.196;2023-04-03T05:43:41;1.30;1.00
9824;DHT22;4951;50.778;7.196;2023-04-03T05:46:17;1.30;1.00
9824;DHT22;4951;50.778;7.196;2023-04-03T05:48:49;1.40;1.00
9824;DHT22;4951;50.778;7.196;2023-04-03T05:51:32;1.40;25.80
9824;DHT22;4951;50.778;7.196;2023-04-03T05:54:27;1.50;5.50
9824;DHT22;4951;50.778;7.196;2023-04-03T05:57:22;1.50;1.00
9824;DHT22;4951;50.778;7.196;2023-04-03T06:03:02;1.50;1.00
9824;DHT22;4951;50.778;7.196;2023-04-03T06:06:13;1.50;1.00
9824;DHT22;4951;50.778;7.196;2023-04-03T06:08:42;1.50;1.00
9824;DHT22;4951;50.778;7.196;2023-04-03T06:11:21;1.60;1.00
9824;DHT22;4951;50.778;7.196;2023-04-03T06:14:02;1.70;1.00
9824;DHT22;4951;50.778;7.196;2023-04-03T06:16:30;1.70;1.00
9824;DHT22;4951;50.778;7.196;2023-04-03T06:19:02;1.80;1.00
9824;DHT22;4951;50.778;7.196;2023-04-03T06:21:31;1.90;1.00
9824;DHT22;4951;50.778;7.196;2023-04-03T06:23:58;2.00;1.00
9824;DHT22;4951;50.778;7.196;2023-04-03T06:26:26;2.10;1.00
9824;DHT22;4951;50.778;7.196;2023-04-03T06:29:11;2.20;1.00
9824;DHT22;4951;50.778;7.196;2023-04-03T06:31:42;2.30;1.00
9824;DHT22;4951;50.778;7.196;2023-04-03T06:34:11;2.40;1.00
9824;DHT22;4951;50.778;7.196;2023-04-03T06:36:45;2.40;99.90
9824;DHT22;4951;50.778;7.196;2023-04-03T06:39:29;2.50;99.90
9824;DHT22;4951;50.778;7.196;2023-04-03T06:42:14;2.60;11.30
9824;DHT22;4951;50.778;7.196;2023-04-03T06:45:11;2.70;1.00
9824;DHT22;4951;50.778;7.196;2023-04-03T06:47:47;2.70;1.00
9824;DHT22;4951;50.778;7.196;2023-04-03T06:50:28;2.80;1.00
9824;DHT22;4951;50.778;7.196;2023-04-03T06:53:17;2.80;99.90
9824;DHT22;4951;50.778;7.196;2023-04-03T06:55:49;2.90;1.00
9824;DHT22;4951;50.778;7.196;2023-04-03T06:58:17;3.00;1.00
9824;DHT22;4951;50.778;7.196;2023-04-03T07:00:48;3.00;99.90
9824;DHT22;4951;50.778;7.196;2023-04-03T07:03:24;3.10;99.90
9824;DHT22;4951;50.778;7.196;2023-04-03T07:06:00;3.20;99.90
9824;DHT22;4951;50.778;7.196;2023-04-03T07:08:29;3.20;46.50
9824;DHT22;4951;50.778;7.196;2023-04-03T07:14:01;3.30;1.00
9824;DHT22;4951;50.778;7.196;2023-04-03T07:16:43;3.40;1.00
9824;DHT22;4951;50.778;7.196;2023-04-03T07:19:15;3.40;1.00
9824;DHT22;4951;50.778;7.196;2023-04-03T07:21:51;3.50;1.00
9824;DHT22;4951;50.778;7.196;2023-04-03T07:24:25;3.60;1.00
9824;DHT22;4951;50.778;7.196;2023-04-03T07:26:53;3.70;99.90
9824;DHT22;4951;50.778;7.196;2023-04-03T07:30:00;3.80;99.90
9824;DHT22;4951;50.778;7.196;2023-04-03T07:32:40;3.90;1.00
9824;DHT22;4951;50.778;7.196;2023-04-03T07:35:08;4.00;1.00
9824;DHT22;4951;50.778;7.196;2023-04-03T07:38:39;4.10;1.00
9824;DHT22;4951;50.778;7.196;2023-04-03T07:41:29;4.30;99.90
9824;DHT22;4951;50.778;7.196;2023-04-03T07:43:59;4.40;99.90
9824;DHT22;4951;50.778;7.196;2023-04-03T07:50:00;4.60;99.90
9824;DHT22;4951;50.778;7.196;2023-04-03T07:52:57;4.70;99.90
9824;DHT22;4951;50.778;7.196;2023-04-03T07:55:38;4.70;1.00
9824;DHT22;4951;50.778;7.196;2023-04-03T07:58:21;4.80;1.00
9824;DHT22;4951;50.778;7.196;2023-04-03T08:00:50;4.90;1.00
9824;DHT22;4951;50.778;7.196;2023-04-03T08:03:21;5.00;1.00
9824;DHT22;4951;50.778;7.196;2023-04-03T08:05:49;5.10;1.00
9824;DHT22;4951;50.778;7.196;2023-04-03T08:08:32;5.20;99.90
9824;DHT22;4951;50.778;7.196;2023-04-03T08:11:29;5.20;94.20
9824;DHT22;4951;50.778;7.196;2023-04-03T08:14:24;5.30;1.00
9824;DHT22;4951;50.778;7.196;2023-04-03T08:16:57;5.30;1.00
9824;DHT22;4951;50.778;7.196;2023-04-03T08:19:27;5.40;1.00
9824;DHT22;4951;50.778;7.196;2023-04-03T08:22:00;5.50;1.00
9824;DHT22;4951;50.778;7.196;2023-04-03T08:24:29;5.60;99.90
9824;DHT22;4951;50.778;7.196;2023-04-03T08:27:29;5.60;1.00
9824;DHT22;4951;50.778;7.196;2023-04-03T08:30:20;5.60;99.90
9824;DHT22;4951;50.778;7.196;2023-04-03T08:32:56;5.60;1.00
9824;DHT22;4951;50.778;7.196;2023-04-03T08:35:29;5.70;1.00
9824;DHT22;4951;50.778;7.196;2023-04-03T08:38:06;5.70;1.00
9824;DHT22;4951;50.778;7.196;2023-04-03T08:40:37;5.80;1.00
9824;DHT22;4951;50.778;7.196;2023-04-03T08:43:30;5.90;1.00
9824;DHT22;4951;50.778;7.196;2023-04-03T08:46:14;6.00;1.00
9824;DHT22;4951;50.778;7.196;2023-04-03T08:48:53;6.10;1.00
9824;DHT22;4951;50.778;7.196;2023-04-03T08:51:24;6.10;1.00
9824;DHT22;4951;50.778;7.196;2023-04-03T08:54:21;6.10;1.00
9824;DHT22;4951;50.778;7.196;2023-04-03T08:57:11;6.20;1.00
9824;DHT22;4951;50.778;7.196;2023-04-03T09:03:42;6.40;1.00
9824;DHT22;4951;50.778;7.196;2023-04-03T09:06:15;6.60;99.90
9824;DHT22;4951;50.778;7.196;2023-04-03T09:09:15;6.70;41.60
9824;DHT22;4951;50.778;7.196;2023-04-03T09:12:11;6.80;1.00
9824;DHT22;4951;50.778;7.196;2023-04-03T09:15:02;6.90;1.00
9824;DHT22;4951;50.778;7.196;2023-04-03T09:17:46;6.90;1.00
9824;DHT22;4951;50.778;7.196;2023-04-03T09:20:40;7.00;1.00
9824;DHT22;4951;50.778;7.196;2023-04-03T09:23:40;7.00;99.90
9824;DHT22;4951;50.778;7.196;2023-04-03T09:26:30;6.90;99.90
9824;DHT22;4951;50.778;7.196;2023-04-03T09:29:41;7.00;99.90
9824;DHT22;4951;50.778;7.196;2023-04-03T09:32:20;7.10;99.90
9824;DHT22;4951;50.778;7.196;2023-04-03T09:38:32;7.30;99.90
9824;DHT22;4951;50.778;7.196;2023-04-03T09:41:11;7.40;99.90
9824;DHT22;4951;50.778;7.196;2023-04-03T09:44:22;7.50;99.90
9824;DHT22;4951;50.778;7.196;2023-04-03T09:46:56;7.50;59.90
9824;DHT22;4951;50.778;7.196;2023-04-03T09:49:27;7.50;71.50
9824;DHT22;4951;50.778;7.196;2023-04-03T09:56:27;7.50;1.00
9824;DHT22;4951;50.778;7.196;2023-04-03T09:59:14;7.30;1.00
9824;DHT22;4951;50.778;7.196;2023-04-03T10:02:28;7.30;1.00
9824;DHT22;4951;50.778;7.196;2023-04-03T10:05:44;7.50;1.00
9824;DHT22;4951;50.778;7.196;2023-04-03T10:08:23;7.60;1.00
9824;DHT22;4951;50.778;7.196;2023-04-03T10:12:16;7.70;1.00
9824;DHT22;4951;50.778;7.196;2023-04-03T10:14:17;7.80;1.00
9824;DHT22;4951;50.778;7.196;2023-04-03T10:16:53;7.80;1.00
9824;DHT22;4951;50.778;7.196;2023-04-03T10:19:34;7.90;1.00
9824;DHT22;4951;50.778;7.196;2023-04-03T10:22:27;7.90;1.00
9824;DHT22;4951;50.778;7.196;2023-04-03T10:25:18;8.00;1.00
9824;DHT22;4951;50.778;7.196;2023-04-03T10:28:19;8.10;1.00
9824;DHT22;4951;50.778;7.196;2023-04-03T10:30:52;8.10;1.00
9824;DHT22;4951;50.778;7.196;2023-04-03T10:33:35;8.20;1.00
9824;DHT22;4951;50.778;7.196;2023-04-03T10:36:16;8.30;1.00
9824;DHT22;4951;50.778;7.196;2023-04-03T10:39:30;8.30;1.00
9824;DHT22;4951;50.778;7.196;2023-04-03T10:42:18;8.40;1.00
9824;DHT22;4951;50.778;7.196;2023-04-03T10:45:19;8.40;1.00
9824;DHT22;4951;50.778;7.196;2023-04-03T10:48:14;8.40;1.00
9824;DHT22;4951;50.778;7.196;2023-04-03T10:50:47;8.40;1.00
9824;DHT22;4951;50.778;7.196;2023-04-03T10:53:54;8.40;1.00
9824;DHT22;4951;50.778;7.196;2023-04-03T10:56:35;8.40;1.00
9824;DHT22;4951;50.778;7.196;2023-04-03T11:02:29;8.50;1.00
9824;DHT22;4951;50.778;7.196;2023-04-03T11:05:06;8.60;1.00
9824;DHT22;4951;50.778;7.196;2023-04-03T11:07:39;8.60;1.00
9824;DHT22;4951;50.778;7.196;2023-04-03T11:10:15;8.80;1.00
9824;DHT22;4951;50.778;7.196;2023-04-03T11:13:22;8.90;1.00
9824;DHT22;4951;50.778;7.196;2023-04-03T11:16:02;8.90;1.00
9824;DHT22;4951;50.778;7.196;2023-04-03T11:18:44;8.90;1.00
9824;DHT22;4951;50.778;7.196;2023-04-03T11:21:56;8.90;1.00
9824;DHT22;4951;50.778;7.196;2023-04-03T11:24:27;9.00;1.00
9824;DHT22;4951;50.778;7.196;2023-04-03T11:27:16;9.00;1.00
9824;DHT22;4951;50.778;7.196;2023-04-03T11:29:59;9.10;99.90
9824;DHT22;4951;50.778;7.196;2023-04-03T11:32:54;9.10;99.90
9824;DHT22;4951;50.778;7.196;2023-04-03T11:35:32;9.20;99.90
9824;DHT22;4951;50.778;7.196;2023-04-03T11:38:21;9.30;99.90
9824;DHT22;4951;50.778;7.196;2023-04-03T11:41:11;9.50;99.90
9824;DHT22;4951;50.778;7.196;2023-04-03T11:43:57;9.70;99.90
9824;DHT22;4951;50.778;7.196;2023-04-03T11:47:06;9.70;99.90
9824;DHT22;4951;50.778;7.196;2023-04-03T11:50:05;9.80;99.90
9824;DHT22;4951;50.778;7.196;2023-04-03T11:53:02;9.90;99.90
9824;DHT22;4951;50.778;7.196;2023-04-03T11:56:31;10.00;99.90
9824;DHT22;4951;50.778;7.196;2023-04-03T11:59:24;10.20;99.90
9824;DHT22;4951;50.778;7.196;2023-04-03T12:02:35;10.30;99.90
9824;DHT22;4951;50.778;7.196;2023-04-03T12:05:46;10.20;99.90
9824;DHT22;4951;50.778;7.196;2023-04-03T12:08:55;10.10;99.90
9824;DHT22;4951;50.778;7.196;2023-04-03T12:11:48;10.20;99.90
9824;DHT22;4951;50.778;7.196;2023-04-03T12:17:33;10.40;99.90
9824;DHT22;4951;50.778;7.196;2023-04-03T12:20:55;10.40;99.90
9824;DHT22;4951;50.778;7.196;2023-04-03T12:23:29;10.60;99.90
9824;DHT22;4951;50.778;7.196;2023-04-03T12:26:27;10.70;99.90
9824;DHT22;4951;50.778;7.196;2023-04-03T12:35:48;10.80;99.90
9824;DHT22;4951;50.778;7.196;2023-04-03T12:41:56;11.00;99.90
9824;DHT22;4951;50.778;7.196;2023-04-03T12:44:40;10.90;99.90
9824;DHT22;4951;50.778;7.196;2023-04-03T12:47:28;10.80;99.90
9824;DHT22;4951;50.778;7.196;2023-04-03T12:50:19;10.90;99.90
9824;DHT22;4951;50.778;7.196;2023-04-03T12:53:16;10.90;99.90
9824;DHT22;4951;50.778;7.196;2023-04-03T12:56:19;11.00;99.90
9824;DHT22;4951;50.778;7.196;2023-04-03T12:59:18;11.20;99.90
9824;DHT22;4951;50.778;7.196;2023-04-03T13:02:00;11.20;99.90
9824;DHT22;4951;50.778;7.196;2023-04-03T13:04:46;11.40;99.90
9824;DHT22;4951;50.778;7.196;2023-04-03T13:07:24;11.60;99.90
9824;DHT22;4951;50.778;7.196;2023-04-03T13:10:00;11.60;99.90
9824;DHT22;4951;50.778;7.196;2023-04-03T13:12:44;11.70;99.90
9824;DHT22;4951;50.778;7.196;2023-04-03T13:15:15;11.90;99.90
9824;DHT22;4951;50.778;7.196;2023-04-03T13:17:45;12.20;99.90
9824;DHT22;4951;50.778;7.196;2023-04-03T13:20:20;12.60;99.90
9824;DHT22;4951;50.778;7.196;2023-04-03T13:23:18;12.90;99.90
9824;DHT22;4951;50.778;7.196;2023-04-03T13:26:00;13.30;99.90
9824;DHT22;4951;50.778;7.196;2023-04-03T13:28:30;13.60;99.90
9824;DHT22;4951;50.778;7.196;2023-04-03T13:31:15;13.80;99.90
9824;DHT22;4951;50.778;7.196;2023-04-03T13:33:56;14.00;99.90
9824;DHT22;4951;50.778;7.196;2023-04-03T13:36:30;14.20;99.90
9824;DHT22;4951;50.778;7.196;2023-04-03T13:39:20;14.30;99.90
9824;DHT22;4951;50.778;7.196;2023-04-03T13:48:22;14.80;99.90
9824;DHT22;4951;50.778;7.196;2023-04-03T13:51:02;14.90;99.90
9824;DHT22;4951;50.778;7.196;2023-04-03T13:53:41;15.00;99.90
9824;DHT22;4951;50.778;7.196;2023-04-03T13:56:27;15.20;99.90
9824;DHT22;4951;50.778;7.196;2023-04-03T13:59:05;15.50;99.90
9824;DHT22;4951;50.778;7.196;2023-04-03T14:01:43;15.70;99.90
9824;DHT22;4951;50.778;7.196;2023-04-03T14:04:29;15.80;99.90
9824;DHT22;4951;50.778;7.196;2023-04-03T14:06:58;15.80;99.90
9824;DHT22;4951;50.778;7.196;2023-04-03T14:09:48;16.00;99.90
9824;DHT22;4951;50.778;7.196;2023-04-03T14:12:31;16.00;99.90
9824;DHT22;4951;50.778;7.196;2023-04-03T14:15:02;16.00;99.60
9824;DHT22;4951;50.778;7.196;2023-04-03T14:17:35;16.10;97.10
9824;DHT22;4951;50.778;7.196;2023-04-03T14:20:54;16.10;92.50
9824;DHT22;4951;50.778;7.196;2023-04-03T14:23:23;16.30;96.70
9824;DHT22;4951;50.778;7.196;2023-04-03T14:25:54;16.70;99.90
9824;DHT22;4951;50.778;7.196;2023-04-03T14:28:22;16.70;89.30
9824;DHT22;4951;50.778;7.196;2023-04-03T14:30:52;16.60;71.80
9824;DHT22;4951;50.778;7.196;2023-04-03T14:33:29;16.40;56.50
9824;DHT22;4951;50.778;7.196;2023-04-03T14:36:05;16.50;55.30
9824;DHT22;4951;50.778;7.196;2023-04-03T14:38:50;16.60;53.80
9824;DHT22;4951;50.778;7.196;2023-04-03T14:41:24;16.50;44.80
9824;DHT22;4951;50.778;7.196;2023-04-03T14:44:28;16.60;45.20
9824;DHT22;4951;50.778;7.196;2023-04-03T14:47:04;16.70;41.30
9824;DHT22;4951;50.778;7.196;2023-04-03T14:49:41;16.90;43.20
9824;DHT22;4951;50.778;7.196;2023-04-03T14:52:22;16.90;34.20
9824;DHT22;4951;50.778;7.196;2023-04-03T14:54:59;16.90;27.80
9824;DHT22;4951;50.778;7.196;2023-04-03T14:57:51;16.80;21.50
9824;DHT22;4951;50.778;7.196;2023-04-03T15:00:23;16.60;17.60
9824;DHT22;4951;50.778;7.196;2023-04-03T15:02:50;16.60;13.90
9824;DHT22;4951;50.778;7.196;2023-04-03T15:05:18;16.60;14.70
9824;DHT22;4951;50.778;7.196;2023-04-03T15:07:50;16.50;14.60
9824;DHT22;4951;50.778;7.196;2023-04-03T15:10:22;16.50;12.80
9824;DHT22;4951;50.778;7.196;2023-04-03T15:12:54;16.40;7.40
9824;DHT22;4951;50.778;7.196;2023-04-03T15:15:22;16.10;1.00
9824;DHT22;4951;50.778;7.196;2023-04-03T15:17:51;15.80;1.00
9824;DHT22;4951;50.778;7.196;2023-04-03T15:20:26;15.60;1.00
9824;DHT22;4951;50.778;7.196;2023-04-03T15:23:01;15.50;1.00
9824;DHT22;4951;50.778;7.196;2023-04-03T15:25:29;15.60;1.00
9824;DHT22;4951;50.778;7.196;2023-04-03T15:28:03;15.80;1.00
9824;DHT22;4951;50.778;7.196;2023-04-03T15:30:53;15.90;1.00
9824;DHT22;4951;50.778;7.196;2023-04-03T15:33:38;15.80;1.00
9824;DHT22;4951;50.778;7.196;2023-04-03T15:36:27;15.90;1.00
9824;DHT22;4951;50.778;7.196;2023-04-03T15:42:16;15.90;1.00
9824;DHT22;4951;50.778;7.196;2023-04-03T15:44:50;15.70;1.00
9824;DHT22;4951;50.778;7.196;2023-04-03T15:47:19;15.50;1.00
9824;DHT22;4951;50.778;7.196;2023-04-03T15:49:48;14.90;1.00
9824;DHT22;4951;50.778;7.196;2023-04-03T15:52:18;14.30;1.00
9824;DHT22;4951;50.778;7.196;2023-04-03T15:55:58;13.50;1.00
9824;DHT22;4951;50.778;7.196;2023-04-03T15:59:03;12.50;1.00
9824;DHT22;4951;50.778;7.196;2023-04-03T16:01:37;11.80;1.00
9824;DHT22;4951;50.778;7.196;2023-04-03T16:04:08;11.30;1.00
9824;DHT22;4951;50.778;7.196;2023-04-03T16:06:48;11.00;1.00
9824;DHT22;4951;50.778;7.196;2023-04-03T16:09:23;10.70;1.00
9824;DHT22;4951;50.778;7.196;2023-04-03T16:12:37;10.40;1.00
9824;DHT22;4951;50.778;7.196;2023-04-03T16:15:07;10.20;1.00
9824;DHT22;4951;50.778;7.196;2023-04-03T16:17:57;10.00;1.00
9824;DHT22;4951;50.778;7.196;2023-04-03T16:21:15;9.80;1.00
9824;DHT22;4951;50.778;7.196;2023-04-03T16:23:46;9.60;1.00
9824;DHT22;4951;50.778;7.196;2023-04-03T16:26:15;9.50;1.00
9824;DHT22;4951;50.778;7.196;2023-04-03T16:28:48;9.40;4.00
9824;DHT22;4951;50.778;7.196;2023-04-03T16:31:34;9.30;10.40
9824;DHT22;4951;50.778;7.196;2023-04-03T16:34:14;9.20;15.90
9824;DHT22;4951;50.778;7.196;2023-04-03T16:37:02;9.10;20.80
9824;DHT22;4951;50.778;7.196;2023-04-03T16:39:36;9.10;25.60
9824;DHT22;4951;50.778;7.196;2023-04-03T16:42:23;9.00;29.40
9824;DHT22;4951;50.778;7.196;2023-04-03T16:44:55;8.90;34.90
9824;DHT22;4951;50.778;7.196;2023-04-03T16:47:25;8.90;39.30
9824;DHT22;4951;50.778;7.196;2023-04-03T16:49:53;8.90;45.70
9824;DHT22;4951;50.778;7.196;2023-04-03T16:52:21;8.80;49.30
9824;DHT22;4951;50.778;7.196;2023-04-03T16:55:27;8.80;54.50
9824;DHT22;4951;50.778;7.196;2023-04-03T16:58:01;8.70;58.80
9824;DHT22;4951;50.778;7.196;2023-04-03T17:04:22;8.50;75.80
9824;DHT22;4951;50.778;7.196;2023-04-03T17:07:25;8.50;84.40
9824;DHT22;4951;50.778;7.196;2023-04-03T17:09:54;8.40;85.00
9824;DHT22;4951;50.778;7.196;2023-04-03T17:12:47;8.40;85.30
9824;DHT22;4951;50.778;7.196;2023-04-03T17:15:18;8.30;81.70
9824;DHT22;4951;50.778;7.196;2023-04-03T17:17:51;8.20;83.60
9824;DHT22;4951;50.778;7.196;2023-04-03T17:20:35;8.20;85.20
9824;DHT22;4951;50.778;7.196;2023-04-03T17:23:04;8.10;89.40
9824;DHT22;4951;50.778;7.196;2023-04-03T17:25:33;8.00;92.20
9824;DHT22;4951;50.778;7.196;2023-04-03T17:28:12;7.90;94.60
9824;DHT22;4951;50.778;7.196;2023-04-03T17:30:47;7.90;98.50
9824;DHT22;4951;50.778;7.196;2023-04-03T17:33:15;7.80;99.90
9824;DHT22;4951;50.778;7.196;2023-04-03T17:35:43;7.80;99.90
9824;DHT22;4951;50.778;7.196;2023-04-03T17:38:12;7.70;99.90
9824;DHT22;4951;50.778;7.196;2023-04-03T17:40:39;7.70;99.90
9824;DHT22;4951;50.778;7.196;2023-04-03T17:43:09;7.60;99.90
9824;DHT22;4951;50.778;7.196;2023-04-03T17:45:39;7.60;99.90
9824;DHT22;4951;50.778;7.196;2023-04-03T17:48:06;7.50;99.90
9824;DHT22;4951;50.778;7.196;2023-04-03T17:50:36;7.50;99.90
9824;DHT22;4951;50.778;7.196;2023-04-03T17:53:05;7.40;99.90
9824;DHT22;4951;50.778;7.196;2023-04-03T17:55:38;7.40;99.90
9824;DHT22;4951;50.778;7.196;2023-04-03T17:58:12;7.30;99.90
9824;DHT22;4951;50.778;7.196;2023-04-03T18:00:40;7.20;99.90
9824;DHT22;4951;50.778;7.196;2023-04-03T18:03:07;7.10;99.90
9824;DHT22;4951;50.778;7.196;2023-04-03T18:05:40;7.00;99.90
9824;DHT22;4951;50.778;7.196;2023-04-03T18:08:09;7.00;99.90
9824;DHT22;4951;50.778;7.196;2023-04-03T18:10:43;6.90;99.90
9824;DHT22;4951;50.778;7.196;2023-04-03T18:13:12;6.80;99.90
9824;DHT22;4951;50.778;7.196;2023-04-03T18:15:40;6.70;99.90
9824;DHT22;4951;50.778;7.196;2023-04-03T18:18:11;6.70;99.90
9824;DHT22;4951;50.778;7.196;2023-04-03T18:21:00;6.60;99.90
9824;DHT22;4951;50.778;7.196;2023-04-03T18:23:56;6.60;99.90
9824;DHT22;4951;50.778;7.196;2023-04-03T18:26:35;6.50;99.90
9824;DHT22;4951;50.778;7.196;2023-04-03T18:29:15;6.50;99.90
9824;DHT22;4951;50.778;7.196;2023-04-03T18:32:13;6.40;99.90
9824;DHT22;4951;50.778;7.196;2023-04-03T18:34:47;6.30;99.90
9824;DHT22;4951;50.778;7.196;2023-04-03T18:37:16;6.20;99.90
9824;DHT22;4951;50.778;7.196;2023-04-03T18:39:56;6.20;99.90
9824;DHT22;4951;50.778;7.196;2023-04-03T18:42:26;6.20;99.90
9824;DHT22;4951;50.778;7.196;2023-04-03T18:45:32;6.10;99.90
9824;DHT22;4951;50.778;7.196;2023-04-03T18:48:15;6.00;99.90
9824;DHT22;4951;50.778;7.196;2023-04-03T18:50:46;6.00;99.90